Tustin, MI (49688)

4:11 AM EDT on June 02, 2015 (GMT -0400)
Diamond Lake | | Change Station
CLOSE
Current Station
Personal Weather Station
Location: Tustin, MI
Elevation: 1234 ft
Nearby Weather Stations
Active Advisory: Frost Advisory

Elev 1234 ft 44.09 °N, 85.48 °W | Updated 1 minute ago

Clear
Clear
38.5 °F
Feels Like 38 °F
N
0.0
Wind Variable Wind from South

Today
High -- | Low -- °F
--% Chance of Precip.
Yesterday
High -- | Low -- °F
Precip. -- in
6:01 AM 9:18 PM
Full, 100% visible
Pressure 30.21 in
Visibility 10.0 miles
Clouds Clear
Windchill 38 °F
Dew Point 37 °F
Humidity 95%
Rainfall 0.00 in
Snow Depth Not available.
UV 0 out of 12
Pollen 7.70 out of 12
Air Quality Not available.
Flu Activity Sporadic
METAR KCAD 020755Z AUTO 00000KT 10SM CLR 02/01 A3021 RMK AO2 T00250013

More Conditions Fewer Conditions

Pressure 30.21 in
Visibility 10.0 miles
Clouds Clear
Windchill 38 °F
Dew Point 37 °F
Humidity 95%
Rainfall 0.00 in
Snow Depth Not available.
UV 0 out of 12
Pollen 7.70 out of 12
Air Quality Not available.
Flu Activity Sporadic
METAR KCAD 020755Z AUTO 00000KT 10SM CLR 02/01 A3021 RMK AO2 T00250013

More Conditions Fewer Conditions

10-Day Weather Forecast

Almanac

Astronomy

Jun. 02, 2015 Rise Set
Actual Time
Civil Twilight
Nautical Twilight
Astronomical Twilight
Moon
Length of Visible Light
Length of Day
Tomorrow will be .
, % of the Moon is Illuminated

Today's Extremes

State Highs State Lows

Community

WunderPhotos

Upload Photos

1,825,895 photos uploaded!

WunderBlogs® & News

Nearby

Air Quality

  Air Quality AQ Index Pollutant
Not available.

Snow Depth

Station Depth Elevation

Earthquake Activity

City Distance Mag. Time & Date
Minimum magnitude displayed is 2.5.

Coastal Water Temperatures

Place Temperature

Stations

Nearby Weather Stations

Station Location Temp. Windchill Dew Point Humidity Wind Precip. Elev Updated Type
                   
Frost Advisory
Statement as of 9:25 PM EDT on June 01, 2015

... Frost advisory remains in effect from 2 am to 8 am EDT
Tuesday...

Hazardous weather...

* widespread frost is expected again between 2 am and 8 am
   Tuesday morning.

* Low temperatures will be between 33 and 38 degrees.

* Normally colder locations could see some temperatures around
   freezing.

Impacts...

* fruit trees and other tender vegetation may be damaged if
   precautionary measures are not taken.

Precautionary/preparedness actions...

* a frost advisory is issued when frost is expected to develop
   during the growing season. Those with agricultural interests
   in the advised area are advised to harvest or protect tender
   vegetation. Also... potted plants normally left outdoors
   should be covered or brought inside away from the cold.